sensor_id;sensor_type;location;lat;lon;timestamp;P1;durP1;ratioP1;P2;durP2;ratioP2
48578;SDS011;34357;51.948;6.132;2022-07-23T00:01:17;4.75;;;4.03;;
48578;SDS011;34357;51.948;6.132;2022-07-23T00:03:43;4.82;;;3.55;;
48578;SDS011;34357;51.948;6.132;2022-07-23T00:06:09;7.45;;;3.90;;
48578;SDS011;34357;51.948;6.132;2022-07-23T00:08:35;3.90;;;3.50;;
48578;SDS011;34357;51.948;6.132;2022-07-23T00:11:00;5.55;;;4.18;;
48578;SDS011;34357;51.948;6.132;2022-07-23T00:13:26;7.30;;;4.30;;
48578;SDS011;34357;51.948;6.132;2022-07-23T00:15:52;7.95;;;4.38;;
48578;SDS011;34357;51.948;6.132;2022-07-23T00:18:18;8.48;;;4.30;;
48578;SDS011;34357;51.948;6.132;2022-07-23T00:20:43;6.30;;;4.40;;
48578;SDS011;34357;51.948;6.132;2022-07-23T00:23:09;5.95;;;4.05;;
48578;SDS011;34357;51.948;6.132;2022-07-23T00:25:35;7.90;;;4.28;;
48578;SDS011;34357;51.948;6.132;2022-07-23T00:28:01;7.28;;;4.38;;
48578;SDS011;34357;51.948;6.132;2022-07-23T00:30:28;6.97;;;4.55;;
48578;SDS011;34357;51.948;6.132;2022-07-23T00:32:55;6.68;;;4.38;;
48578;SDS011;34357;51.948;6.132;2022-07-23T00:35:24;6.15;;;4.00;;
48578;SDS011;34357;51.948;6.132;2022-07-23T00:37:51;9.07;;;4.00;;
48578;SDS011;34357;51.948;6.132;2022-07-23T00:40:17;7.18;;;4.40;;
48578;SDS011;34357;51.948;6.132;2022-07-23T00:42:43;6.47;;;4.20;;
48578;SDS011;34357;51.948;6.132;2022-07-23T00:45:09;11.63;;;4.20;;
48578;SDS011;34357;51.948;6.132;2022-07-23T00:47:35;7.15;;;4.35;;
48578;SDS011;34357;51.948;6.132;2022-07-23T00:50:01;6.15;;;4.40;;
48578;SDS011;34357;51.948;6.132;2022-07-23T00:52:29;8.45;;;4.38;;
48578;SDS011;34357;51.948;6.132;2022-07-23T00:54:55;7.22;;;5.32;;
48578;SDS011;34357;51.948;6.132;2022-07-23T00:57:21;5.35;;;4.10;;
48578;SDS011;34357;51.948;6.132;2022-07-23T00:59:46;8.65;;;4.75;;
48578;SDS011;34357;51.948;6.132;2022-07-23T01:02:12;7.70;;;4.97;;
48578;SDS011;34357;51.948;6.132;2022-07-23T01:04:38;6.50;;;4.65;;
48578;SDS011;34357;51.948;6.132;2022-07-23T01:07:04;7.65;;;5.20;;
48578;SDS011;34357;51.948;6.132;2022-07-23T01:09:30;6.72;;;4.90;;
48578;SDS011;34357;51.948;6.132;2022-07-23T01:11:57;9.00;;;4.72;;
48578;SDS011;34357;51.948;6.132;2022-07-23T01:14:23;7.75;;;5.38;;
48578;SDS011;34357;51.948;6.132;2022-07-23T01:16:49;8.32;;;5.70;;
48578;SDS011;34357;51.948;6.132;2022-07-23T01:19:15;8.45;;;5.25;;
48578;SDS011;34357;51.948;6.132;2022-07-23T01:21:44;6.35;;;5.25;;
48578;SDS011;34357;51.948;6.132;2022-07-23T01:24:13;7.70;;;5.60;;
48578;SDS011;34357;51.948;6.132;2022-07-23T01:26:47;10.20;;;5.85;;
48578;SDS011;34357;51.948;6.132;2022-07-23T01:29:14;8.27;;;5.68;;
48578;SDS011;34357;51.948;6.132;2022-07-23T01:31:41;9.68;;;6.35;;
48578;SDS011;34357;51.948;6.132;2022-07-23T01:34:07;10.18;;;6.38;;
48578;SDS011;34357;51.948;6.132;2022-07-23T01:36:36;7.82;;;6.85;;
48578;SDS011;34357;51.948;6.132;2022-07-23T01:39:03;10.35;;;7.10;;
48578;SDS011;34357;51.948;6.132;2022-07-23T01:41:29;9.65;;;6.57;;
48578;SDS011;34357;51.948;6.132;2022-07-23T01:43:55;9.63;;;6.88;;
48578;SDS011;34357;51.948;6.132;2022-07-23T01:46:22;15.70;;;8.55;;
48578;SDS011;34357;51.948;6.132;2022-07-23T01:48:48;14.13;;;7.20;;
48578;SDS011;34357;51.948;6.132;2022-07-23T01:51:33;9.82;;;7.63;;
48578;SDS011;34357;51.948;6.132;2022-07-23T01:54:04;8.60;;;6.63;;
48578;SDS011;34357;51.948;6.132;2022-07-23T01:56:29;9.02;;;6.70;;
48578;SDS011;34357;51.948;6.132;2022-07-23T01:58:55;9.45;;;6.97;;
48578;SDS011;34357;51.948;6.132;2022-07-23T02:01:22;8.05;;;7.07;;
48578;SDS011;34357;51.948;6.132;2022-07-23T02:03:47;7.75;;;6.97;;
48578;SDS011;34357;51.948;6.132;2022-07-23T02:06:13;10.88;;;7.75;;
48578;SDS011;34357;51.948;6.132;2022-07-23T02:08:39;10.00;;;6.68;;
48578;SDS011;34357;51.948;6.132;2022-07-23T02:11:04;8.68;;;6.82;;
48578;SDS011;34357;51.948;6.132;2022-07-23T02:13:32;9.95;;;7.13;;
48578;SDS011;34357;51.948;6.132;2022-07-23T02:15:58;8.73;;;6.72;;
48578;SDS011;34357;51.948;6.132;2022-07-23T02:18:24;11.73;;;7.65;;
48578;SDS011;34357;51.948;6.132;2022-07-23T02:20:50;16.67;;;7.45;;
48578;SDS011;34357;51.948;6.132;2022-07-23T02:23:16;10.57;;;7.78;;
48578;SDS011;34357;51.948;6.132;2022-07-23T02:25:42;11.40;;;8.15;;
48578;SDS011;34357;51.948;6.132;2022-07-23T02:28:09;10.05;;;7.50;;
48578;SDS011;34357;51.948;6.132;2022-07-23T02:30:34;9.73;;;7.78;;
48578;SDS011;34357;51.948;6.132;2022-07-23T02:33:00;8.88;;;7.40;;
48578;SDS011;34357;51.948;6.132;2022-07-23T02:35:26;10.85;;;7.70;;
48578;SDS011;34357;51.948;6.132;2022-07-23T02:37:52;9.80;;;7.70;;
48578;SDS011;34357;51.948;6.132;2022-07-23T02:40:18;8.57;;;7.75;;
48578;SDS011;34357;51.948;6.132;2022-07-23T02:42:44;9.32;;;6.85;;
48578;SDS011;34357;51.948;6.132;2022-07-23T02:45:09;15.77;;;8.00;;
48578;SDS011;34357;51.948;6.132;2022-07-23T02:47:35;9.60;;;7.78;;
48578;SDS011;34357;51.948;6.132;2022-07-23T02:50:01;10.43;;;7.80;;
48578;SDS011;34357;51.948;6.132;2022-07-23T02:52:30;10.73;;;7.55;;
48578;SDS011;34357;51.948;6.132;2022-07-23T02:54:56;9.05;;;8.15;;
48578;SDS011;34357;51.948;6.132;2022-07-23T02:57:21;9.68;;;7.93;;
48578;SDS011;34357;51.948;6.132;2022-07-23T02:59:47;10.73;;;7.90;;
48578;SDS011;34357;51.948;6.132;2022-07-23T03:02:13;9.57;;;7.65;;
48578;SDS011;34357;51.948;6.132;2022-07-23T03:04:39;9.82;;;7.50;;
48578;SDS011;34357;51.948;6.132;2022-07-23T03:07:07;12.07;;;8.48;;
48578;SDS011;34357;51.948;6.132;2022-07-23T03:09:34;9.48;;;7.72;;
48578;SDS011;34357;51.948;6.132;2022-07-23T03:11:59;13.15;;;8.68;;
48578;SDS011;34357;51.948;6.132;2022-07-23T03:14:25;11.18;;;8.57;;
48578;SDS011;34357;51.948;6.132;2022-07-23T03:16:52;12.52;;;9.07;;
48578;SDS011;34357;51.948;6.132;2022-07-23T03:19:19;9.18;;;8.15;;
48578;SDS011;34357;51.948;6.132;2022-07-23T03:21:45;10.45;;;8.77;;
48578;SDS011;34357;51.948;6.132;2022-07-23T03:24:11;9.90;;;7.95;;
48578;SDS011;34357;51.948;6.132;2022-07-23T03:26:37;10.93;;;9.02;;
48578;SDS011;34357;51.948;6.132;2022-07-23T03:29:03;11.15;;;9.20;;
48578;SDS011;34357;51.948;6.132;2022-07-23T03:31:30;12.13;;;9.20;;
48578;SDS011;34357;51.948;6.132;2022-07-23T03:33:58;12.52;;;8.73;;
48578;SDS011;34357;51.948;6.132;2022-07-23T03:36:25;9.75;;;8.75;;
48578;SDS011;34357;51.948;6.132;2022-07-23T03:38:53;10.02;;;8.48;;
48578;SDS011;34357;51.948;6.132;2022-07-23T03:41:19;15.48;;;10.02;;
48578;SDS011;34357;51.948;6.132;2022-07-23T03:43:45;13.27;;;10.10;;
48578;SDS011;34357;51.948;6.132;2022-07-23T03:46:12;13.50;;;10.23;;
48578;SDS011;34357;51.948;6.132;2022-07-23T03:48:38;13.93;;;11.88;;
48578;SDS011;34357;51.948;6.132;2022-07-23T03:51:03;13.23;;;11.48;;
48578;SDS011;34357;51.948;6.132;2022-07-23T03:53:29;17.63;;;12.40;;
48578;SDS011;34357;51.948;6.132;2022-07-23T03:55:55;18.15;;;12.43;;
48578;SDS011;34357;51.948;6.132;2022-07-23T03:58:22;15.23;;;12.85;;
48578;SDS011;34357;51.948;6.132;2022-07-23T04:00:47;14.30;;;11.85;;
48578;SDS011;34357;51.948;6.132;2022-07-23T04:03:14;15.55;;;11.93;;
48578;SDS011;34357;51.948;6.132;2022-07-23T04:05:41;14.65;;;12.23;;
48578;SDS011;34357;51.948;6.132;2022-07-23T04:08:10;14.05;;;11.77;;
48578;SDS011;34357;51.948;6.132;2022-07-23T04:10:39;19.33;;;12.20;;
48578;SDS011;34357;51.948;6.132;2022-07-23T04:13:06;15.80;;;12.50;;
48578;SDS011;34357;51.948;6.132;2022-07-23T04:15:32;17.45;;;13.50;;
48578;SDS011;34357;51.948;6.132;2022-07-23T04:17:57;14.50;;;11.43;;
48578;SDS011;34357;51.948;6.132;2022-07-23T04:20:30;15.70;;;12.40;;
48578;SDS011;34357;51.948;6.132;2022-07-23T04:22:59;15.85;;;11.05;;
48578;SDS011;34357;51.948;6.132;2022-07-23T04:25:25;15.05;;;11.68;;
48578;SDS011;34357;51.948;6.132;2022-07-23T04:27:51;15.70;;;11.98;;
48578;SDS011;34357;51.948;6.132;2022-07-23T04:30:17;16.98;;;11.75;;
48578;SDS011;34357;51.948;6.132;2022-07-23T04:32:43;14.90;;;11.77;;
48578;SDS011;34357;51.948;6.132;2022-07-23T04:35:16;15.23;;;11.45;;
48578;SDS011;34357;51.948;6.132;2022-07-23T04:37:43;17.13;;;11.02;;
48578;SDS011;34357;51.948;6.132;2022-07-23T04:40:09;13.82;;;11.13;;
48578;SDS011;34357;51.948;6.132;2022-07-23T04:42:36;12.95;;;10.60;;
48578;SDS011;34357;51.948;6.132;2022-07-23T04:45:02;13.95;;;11.93;;
48578;SDS011;34357;51.948;6.132;2022-07-23T04:47:29;14.50;;;11.15;;
48578;SDS011;34357;51.948;6.132;2022-07-23T04:49:56;13.32;;;10.82;;
48578;SDS011;34357;51.948;6.132;2022-07-23T04:52:22;13.88;;;11.30;;
48578;SDS011;34357;51.948;6.132;2022-07-23T04:54:48;13.93;;;10.32;;
48578;SDS011;34357;51.948;6.132;2022-07-23T04:57:14;14.27;;;9.90;;
48578;SDS011;34357;51.948;6.132;2022-07-23T04:59:40;13.07;;;10.85;;
48578;SDS011;34357;51.948;6.132;2022-07-23T05:02:07;10.90;;;9.73;;
48578;SDS011;34357;51.948;6.132;2022-07-23T05:04:33;12.52;;;10.63;;
48578;SDS011;34357;51.948;6.132;2022-07-23T05:06:59;15.23;;;11.15;;
48578;SDS011;34357;51.948;6.132;2022-07-23T05:09:25;18.75;;;10.45;;
48578;SDS011;34357;51.948;6.132;2022-07-23T05:11:50;13.95;;;10.73;;
48578;SDS011;34357;51.948;6.132;2022-07-23T05:14:16;16.58;;;10.10;;
48578;SDS011;34357;51.948;6.132;2022-07-23T05:16:43;12.13;;;10.75;;
48578;SDS011;34357;51.948;6.132;2022-07-23T05:19:15;13.73;;;10.90;;
48578;SDS011;34357;51.948;6.132;2022-07-23T05:21:41;13.55;;;10.20;;
48578;SDS011;34357;51.948;6.132;2022-07-23T05:24:06;13.27;;;10.20;;
48578;SDS011;34357;51.948;6.132;2022-07-23T05:26:33;11.23;;;9.13;;
48578;SDS011;34357;51.948;6.132;2022-07-23T05:28:58;14.10;;;10.15;;
48578;SDS011;34357;51.948;6.132;2022-07-23T05:31:24;15.98;;;10.68;;
48578;SDS011;34357;51.948;6.132;2022-07-23T05:33:50;15.32;;;10.35;;
48578;SDS011;34357;51.948;6.132;2022-07-23T05:36:16;11.35;;;8.48;;
48578;SDS011;34357;51.948;6.132;2022-07-23T05:38:48;13.57;;;9.48;;
48578;SDS011;34357;51.948;6.132;2022-07-23T05:41:14;13.63;;;8.43;;
48578;SDS011;34357;51.948;6.132;2022-07-23T05:43:40;18.67;;;9.60;;
48578;SDS011;34357;51.948;6.132;2022-07-23T05:46:09;10.73;;;7.82;;
48578;SDS011;34357;51.948;6.132;2022-07-23T05:48:37;9.68;;;8.25;;
48578;SDS011;34357;51.948;6.132;2022-07-23T05:53:34;14.93;;;8.48;;
48578;SDS011;34357;51.948;6.132;2022-07-23T05:56:07;15.65;;;8.10;;
48578;SDS011;34357;51.948;6.132;2022-07-23T05:58:35;9.27;;;8.00;;
48578;SDS011;34357;51.948;6.132;2022-07-23T06:01:01;11.00;;;8.27;;
48578;SDS011;34357;51.948;6.132;2022-07-23T06:03:30;15.43;;;7.15;;
48578;SDS011;34357;51.948;6.132;2022-07-23T06:05:56;10.18;;;7.50;;
48578;SDS011;34357;51.948;6.132;2022-07-23T06:08:23;8.75;;;7.85;;
48578;SDS011;34357;51.948;6.132;2022-07-23T06:10:49;12.05;;;7.55;;
48578;SDS011;34357;51.948;6.132;2022-07-23T06:13:14;14.57;;;7.13;;
48578;SDS011;34357;51.948;6.132;2022-07-23T06:15:42;12.98;;;6.50;;
48578;SDS011;34357;51.948;6.132;2022-07-23T06:18:08;9.85;;;6.45;;
48578;SDS011;34357;51.948;6.132;2022-07-23T06:20:33;11.20;;;6.25;;
48578;SDS011;34357;51.948;6.132;2022-07-23T06:22:59;9.02;;;6.50;;
48578;SDS011;34357;51.948;6.132;2022-07-23T06:25:24;12.73;;;6.22;;
48578;SDS011;34357;51.948;6.132;2022-07-23T06:27:50;8.02;;;6.45;;
48578;SDS011;34357;51.948;6.132;2022-07-23T06:30:16;9.35;;;6.20;;
48578;SDS011;34357;51.948;6.132;2022-07-23T06:32:43;13.57;;;7.47;;
48578;SDS011;34357;51.948;6.132;2022-07-23T06:35:10;11.30;;;5.72;;
48578;SDS011;34357;51.948;6.132;2022-07-23T06:37:36;8.38;;;5.38;;
48578;SDS011;34357;51.948;6.132;2022-07-23T06:40:02;11.88;;;5.93;;
48578;SDS011;34357;51.948;6.132;2022-07-23T06:42:28;7.97;;;4.82;;
48578;SDS011;34357;51.948;6.132;2022-07-23T06:44:57;5.97;;;4.90;;
48578;SDS011;34357;51.948;6.132;2022-07-23T06:47:23;6.93;;;4.72;;
48578;SDS011;34357;51.948;6.132;2022-07-23T06:49:49;9.68;;;4.97;;
48578;SDS011;34357;51.948;6.132;2022-07-23T06:52:16;7.88;;;4.78;;
48578;SDS011;34357;51.948;6.132;2022-07-23T06:54:42;7.25;;;4.72;;
48578;SDS011;34357;51.948;6.132;2022-07-23T06:57:07;8.32;;;4.40;;
48578;SDS011;34357;51.948;6.132;2022-07-23T06:59:33;8.80;;;4.50;;
48578;SDS011;34357;51.948;6.132;2022-07-23T07:02:01;4.85;;;2.75;;
48578;SDS011;34357;51.948;6.132;2022-07-23T07:04:27;8.38;;;2.85;;
48578;SDS011;34357;51.948;6.132;2022-07-23T07:06:53;8.27;;;4.10;;
48578;SDS011;34357;51.948;6.132;2022-07-23T07:09:18;5.90;;;3.40;;
48578;SDS011;34357;51.948;6.132;2022-07-23T07:11:44;3.90;;;3.00;;
48578;SDS011;34357;51.948;6.132;2022-07-23T07:14:09;5.60;;;2.70;;
48578;SDS011;34357;51.948;6.132;2022-07-23T07:16:35;6.90;;;2.42;;
48578;SDS011;34357;51.948;6.132;2022-07-23T07:19:01;6.03;;;2.92;;
48578;SDS011;34357;51.948;6.132;2022-07-23T07:21:26;6.53;;;2.60;;
48578;SDS011;34357;51.948;6.132;2022-07-23T07:23:52;6.47;;;2.55;;
48578;SDS011;34357;51.948;6.132;2022-07-23T07:26:18;5.57;;;3.30;;
48578;SDS011;34357;51.948;6.132;2022-07-23T07:28:43;10.68;;;3.58;;
48578;SDS011;34357;51.948;6.132;2022-07-23T07:31:09;6.25;;;3.00;;
48578;SDS011;34357;51.948;6.132;2022-07-23T07:33:35;9.13;;;2.92;;
48578;SDS011;34357;51.948;6.132;2022-07-23T07:36:00;6.60;;;2.90;;
48578;SDS011;34357;51.948;6.132;2022-07-23T07:38:26;11.35;;;6.75;;
48578;SDS011;34357;51.948;6.132;2022-07-23T07:40:52;39.33;;;18.75;;
48578;SDS011;34357;51.948;6.132;2022-07-23T07:43:17;16.25;;;9.13;;
48578;SDS011;34357;51.948;6.132;2022-07-23T07:45:43;5.82;;;3.80;;
48578;SDS011;34357;51.948;6.132;2022-07-23T07:48:09;7.63;;;3.40;;
48578;SDS011;34357;51.948;6.132;2022-07-23T07:50:34;4.25;;;2.85;;
48578;SDS011;34357;51.948;6.132;2022-07-23T07:53:00;8.40;;;3.25;;
48578;SDS011;34357;51.948;6.132;2022-07-23T07:55:26;3.47;;;2.83;;
48578;SDS011;34357;51.948;6.132;2022-07-23T07:57:53;6.75;;;3.22;;
48578;SDS011;34357;51.948;6.132;2022-07-23T08:00:19;5.35;;;2.50;;
48578;SDS011;34357;51.948;6.132;2022-07-23T08:02:45;3.47;;;1.48;;
48578;SDS011;34357;51.948;6.132;2022-07-23T08:05:19;3.50;;;1.52;;
48578;SDS011;34357;51.948;6.132;2022-07-23T08:07:46;6.70;;;1.85;;
48578;SDS011;34357;51.948;6.132;2022-07-23T08:10:12;4.35;;;1.67;;
48578;SDS011;34357;51.948;6.132;2022-07-23T08:12:41;5.70;;;1.90;;
48578;SDS011;34357;51.948;6.132;2022-07-23T08:15:10;12.80;;;2.30;;
48578;SDS011;34357;51.948;6.132;2022-07-23T08:17:36;3.88;;;2.13;;
48578;SDS011;34357;51.948;6.132;2022-07-23T08:20:03;7.35;;;1.92;;
48578;SDS011;34357;51.948;6.132;2022-07-23T08:25:15;3.92;;;1.85;;
48578;SDS011;34357;51.948;6.132;2022-07-23T08:27:44;4.68;;;2.17;;
48578;SDS011;34357;51.948;6.132;2022-07-23T08:30:10;4.80;;;2.00;;
48578;SDS011;34357;51.948;6.132;2022-07-23T08:32:55;4.28;;;2.10;;
48578;SDS011;34357;51.948;6.132;2022-07-23T08:35:31;3.95;;;2.47;;
48578;SDS011;34357;51.948;6.132;2022-07-23T08:37:58;5.15;;;2.30;;
48578;SDS011;34357;51.948;6.132;2022-07-23T08:40:26;7.00;;;2.20;;
48578;SDS011;34357;51.948;6.132;2022-07-23T08:42:53;3.72;;;1.80;;
48578;SDS011;34357;51.948;6.132;2022-07-23T08:45:20;6.28;;;1.88;;
48578;SDS011;34357;51.948;6.132;2022-07-23T08:47:50;3.53;;;1.95;;
48578;SDS011;34357;51.948;6.132;2022-07-23T08:50:18;5.63;;;1.98;;
48578;SDS011;34357;51.948;6.132;2022-07-23T08:52:44;5.85;;;1.90;;
48578;SDS011;34357;51.948;6.132;2022-07-23T08:55:10;4.20;;;1.77;;
48578;SDS011;34357;51.948;6.132;2022-07-23T08:57:37;3.28;;;1.75;;
48578;SDS011;34357;51.948;6.132;2022-07-23T09:00:03;5.38;;;1.88;;
48578;SDS011;34357;51.948;6.132;2022-07-23T09:02:31;4.75;;;1.98;;
48578;SDS011;34357;51.948;6.132;2022-07-23T09:05:03;6.30;;;2.20;;
48578;SDS011;34357;51.948;6.132;2022-07-23T09:07:29;4.65;;;2.33;;
48578;SDS011;34357;51.948;6.132;2022-07-23T09:10:05;4.38;;;1.52;;
48578;SDS011;34357;51.948;6.132;2022-07-23T09:12:34;3.22;;;1.52;;
48578;SDS011;34357;51.948;6.132;2022-07-23T09:15:04;3.35;;;1.42;;
48578;SDS011;34357;51.948;6.132;2022-07-23T09:17:42;6.07;;;1.60;;
48578;SDS011;34357;51.948;6.132;2022-07-23T09:20:09;2.53;;;1.30;;
48578;SDS011;34357;51.948;6.132;2022-07-23T09:22:36;3.45;;;1.00;;
48578;SDS011;34357;51.948;6.132;2022-07-23T09:30:25;3.60;;;1.20;;
48578;SDS011;34357;51.948;6.132;2022-07-23T09:33:05;6.07;;;1.45;;
48578;SDS011;34357;51.948;6.132;2022-07-23T09:38:10;3.70;;;1.60;;
48578;SDS011;34357;51.948;6.132;2022-07-23T09:40:36;3.67;;;1.60;;
48578;SDS011;34357;51.948;6.132;2022-07-23T09:43:02;3.45;;;1.90;;
48578;SDS011;34357;51.948;6.132;2022-07-23T09:45:27;4.50;;;1.60;;
48578;SDS011;34357;51.948;6.132;2022-07-23T09:48:09;3.13;;;1.50;;
48578;SDS011;34357;51.948;6.132;2022-07-23T09:50:42;4.03;;;1.15;;
48578;SDS011;34357;51.948;6.132;2022-07-23T09:53:09;4.07;;;1.40;;
48578;SDS011;34357;51.948;6.132;2022-07-23T09:55:51;5.68;;;1.50;;
48578;SDS011;34357;51.948;6.132;2022-07-23T09:58:22;4.78;;;1.70;;
48578;SDS011;34357;51.948;6.132;2022-07-23T10:00:48;3.75;;;1.40;;
48578;SDS011;34357;51.948;6.132;2022-07-23T10:03:15;4.53;;;1.63;;
48578;SDS011;34357;51.948;6.132;2022-07-23T10:06:01;4.38;;;1.55;;
48578;SDS011;34357;51.948;6.132;2022-07-23T10:08:27;2.97;;;1.40;;
48578;SDS011;34357;51.948;6.132;2022-07-23T10:11:23;2.85;;;1.65;;
48578;SDS011;34357;51.948;6.132;2022-07-23T10:13:58;4.35;;;1.40;;
48578;SDS011;34357;51.948;6.132;2022-07-23T10:16:32;5.47;;;1.50;;
48578;SDS011;34357;51.948;6.132;2022-07-23T10:18:58;4.38;;;1.50;;
48578;SDS011;34357;51.948;6.132;2022-07-23T10:21:25;4.30;;;1.20;;
48578;SDS011;34357;51.948;6.132;2022-07-23T10:29:32;3.55;;;1.50;;
48578;SDS011;34357;51.948;6.132;2022-07-23T10:32:16;2.78;;;1.45;;
48578;SDS011;34357;51.948;6.132;2022-07-23T10:37:43;2.60;;;1.20;;
48578;SDS011;34357;51.948;6.132;2022-07-23T10:42:38;2.70;;;1.65;;
48578;SDS011;34357;51.948;6.132;2022-07-23T10:48:15;2.55;;;1.48;;
48578;SDS011;34357;51.948;6.132;2022-07-23T10:50:43;3.00;;;1.90;;
48578;SDS011;34357;51.948;6.132;2022-07-23T10:53:29;4.28;;;1.73;;
48578;SDS011;34357;51.948;6.132;2022-07-23T10:56:14;2.13;;;1.60;;
48578;SDS011;34357;51.948;6.132;2022-07-23T10:58:45;8.63;;;1.80;;
48578;SDS011;34357;51.948;6.132;2022-07-23T11:04:01;3.78;;;1.30;;
48578;SDS011;34357;51.948;6.132;2022-07-23T11:09:29;3.63;;;1.40;;
48578;SDS011;34357;51.948;6.132;2022-07-23T11:17:36;4.00;;;1.38;;
48578;SDS011;34357;51.948;6.132;2022-07-23T11:22:39;2.17;;;1.27;;
48578;SDS011;34357;51.948;6.132;2022-07-23T11:25:27;4.00;;;1.60;;
48578;SDS011;34357;51.948;6.132;2022-07-23T11:28:17;3.40;;;1.58;;
48578;SDS011;34357;51.948;6.132;2022-07-23T11:30:43;2.90;;;1.48;;
48578;SDS011;34357;51.948;6.132;2022-07-23T11:35:36;6.03;;;1.75;;
48578;SDS011;34357;51.948;6.132;2022-07-23T11:38:05;2.33;;;1.30;;
48578;SDS011;34357;51.948;6.132;2022-07-23T11:40:46;3.03;;;1.60;;
48578;SDS011;34357;51.948;6.132;2022-07-23T11:43:16;6.82;;;1.40;;
48578;SDS011;34357;51.948;6.132;2022-07-23T11:45:46;3.63;;;1.60;;
48578;SDS011;34357;51.948;6.132;2022-07-23T11:48:25;2.83;;;1.42;;
48578;SDS011;34357;51.948;6.132;2022-07-23T11:50:53;2.97;;;1.58;;
48578;SDS011;34357;51.948;6.132;2022-07-23T11:55:53;4.22;;;1.60;;
48578;SDS011;34357;51.948;6.132;2022-07-23T11:58:20;2.78;;;1.50;;
48578;SDS011;34357;51.948;6.132;2022-07-23T12:00:46;4.47;;;1.30;;
48578;SDS011;34357;51.948;6.132;2022-07-23T12:03:12;2.35;;;1.20;;
48578;SDS011;34357;51.948;6.132;2022-07-23T12:05:39;2.63;;;1.70;;
48578;SDS011;34357;51.948;6.132;2022-07-23T12:08:06;2.72;;;1.50;;
48578;SDS011;34357;51.948;6.132;2022-07-23T12:10:34;2.80;;;1.50;;
48578;SDS011;34357;51.948;6.132;2022-07-23T12:13:11;3.70;;;1.60;;
48578;SDS011;34357;51.948;6.132;2022-07-23T12:15:43;2.92;;;1.42;;
48578;SDS011;34357;51.948;6.132;2022-07-23T12:18:14;4.97;;;1.50;;
48578;SDS011;34357;51.948;6.132;2022-07-23T12:20:43;5.22;;;1.60;;
48578;SDS011;34357;51.948;6.132;2022-07-23T12:23:11;3.50;;;1.83;;
48578;SDS011;34357;51.948;6.132;2022-07-23T12:25:39;4.65;;;1.20;;
48578;SDS011;34357;51.948;6.132;2022-07-23T12:28:07;3.25;;;1.70;;
48578;SDS011;34357;51.948;6.132;2022-07-23T12:30:44;3.20;;;1.60;;
48578;SDS011;34357;51.948;6.132;2022-07-23T12:33:20;2.92;;;1.52;;
48578;SDS011;34357;51.948;6.132;2022-07-23T12:35:48;6.18;;;1.80;;
48578;SDS011;34357;51.948;6.132;2022-07-23T12:38:15;4.32;;;1.70;;
48578;SDS011;34357;51.948;6.132;2022-07-23T12:40:46;4.25;;;1.85;;
48578;SDS011;34357;51.948;6.132;2022-07-23T12:43:24;4.90;;;1.65;;
48578;SDS011;34357;51.948;6.132;2022-07-23T12:45:51;5.25;;;1.73;;
48578;SDS011;34357;51.948;6.132;2022-07-23T12:48:21;3.58;;;1.90;;
48578;SDS011;34357;51.948;6.132;2022-07-23T12:50:51;1.57;;;1.47;;
48578;SDS011;34357;51.948;6.132;2022-07-23T12:55:58;5.40;;;1.50;;
48578;SDS011;34357;51.948;6.132;2022-07-23T12:58:27;3.47;;;1.40;;
48578;SDS011;34357;51.948;6.132;2022-07-23T13:01:27;3.50;;;1.88;;
48578;SDS011;34357;51.948;6.132;2022-07-23T13:04:08;5.10;;;1.70;;
48578;SDS011;34357;51.948;6.132;2022-07-23T13:09:13;2.50;;;1.80;;
48578;SDS011;34357;51.948;6.132;2022-07-23T13:11:50;6.63;;;1.92;;
48578;SDS011;34357;51.948;6.132;2022-07-23T13:14:17;4.03;;;1.63;;
48578;SDS011;34357;51.948;6.132;2022-07-23T13:16:44;5.35;;;2.10;;
48578;SDS011;34357;51.948;6.132;2022-07-23T13:19:10;4.53;;;1.73;;
48578;SDS011;34357;51.948;6.132;2022-07-23T13:21:36;5.05;;;2.00;;
48578;SDS011;34357;51.948;6.132;2022-07-23T13:24:02;2.50;;;2.00;;
48578;SDS011;34357;51.948;6.132;2022-07-23T13:26:28;3.22;;;2.00;;
48578;SDS011;34357;51.948;6.132;2022-07-23T13:28:53;6.68;;;2.17;;
48578;SDS011;34357;51.948;6.132;2022-07-23T13:31:19;2.60;;;1.88;;
48578;SDS011;34357;51.948;6.132;2022-07-23T13:33:45;3.55;;;2.00;;
48578;SDS011;34357;51.948;6.132;2022-07-23T13:36:11;4.00;;;2.03;;
48578;SDS011;34357;51.948;6.132;2022-07-23T13:38:37;5.00;;;2.28;;
48578;SDS011;34357;51.948;6.132;2022-07-23T13:41:04;3.55;;;2.10;;
48578;SDS011;34357;51.948;6.132;2022-07-23T13:43:30;2.25;;;1.92;;
48578;SDS011;34357;51.948;6.132;2022-07-23T13:45:56;4.53;;;2.20;;
48578;SDS011;34357;51.948;6.132;2022-07-23T13:48:22;3.17;;;2.03;;
48578;SDS011;34357;51.948;6.132;2022-07-23T13:50:48;5.28;;;1.95;;
48578;SDS011;34357;51.948;6.132;2022-07-23T13:53:15;3.78;;;2.20;;
48578;SDS011;34357;51.948;6.132;2022-07-23T13:55:47;3.38;;;2.00;;
48578;SDS011;34357;51.948;6.132;2022-07-23T13:58:15;4.32;;;1.90;;
48578;SDS011;34357;51.948;6.132;2022-07-23T14:00:42;2.70;;;2.25;;
48578;SDS011;34357;51.948;6.132;2022-07-23T14:03:10;3.92;;;2.28;;
48578;SDS011;34357;51.948;6.132;2022-07-23T14:05:36;2.83;;;1.85;;
48578;SDS011;34357;51.948;6.132;2022-07-23T14:08:02;3.15;;;2.20;;
48578;SDS011;34357;51.948;6.132;2022-07-23T14:10:28;2.38;;;1.95;;
48578;SDS011;34357;51.948;6.132;2022-07-23T14:12:54;3.88;;;2.08;;
48578;SDS011;34357;51.948;6.132;2022-07-23T14:15:23;4.13;;;2.00;;
48578;SDS011;34357;51.948;6.132;2022-07-23T14:17:49;3.88;;;2.05;;
48578;SDS011;34357;51.948;6.132;2022-07-23T14:20:15;2.63;;;1.92;;
48578;SDS011;34357;51.948;6.132;2022-07-23T14:22:41;3.15;;;1.80;;
48578;SDS011;34357;51.948;6.132;2022-07-23T14:25:07;2.70;;;1.67;;
48578;SDS011;34357;51.948;6.132;2022-07-23T14:27:35;4.47;;;2.13;;
48578;SDS011;34357;51.948;6.132;2022-07-23T14:30:02;3.72;;;1.92;;
48578;SDS011;34357;51.948;6.132;2022-07-23T14:32:29;3.50;;;2.08;;
48578;SDS011;34357;51.948;6.132;2022-07-23T14:34:55;3.97;;;2.08;;
48578;SDS011;34357;51.948;6.132;2022-07-23T14:37:20;2.17;;;1.95;;
48578;SDS011;34357;51.948;6.132;2022-07-23T14:39:46;4.63;;;2.30;;
48578;SDS011;34357;51.948;6.132;2022-07-23T14:42:12;4.75;;;2.20;;
48578;SDS011;34357;51.948;6.132;2022-07-23T14:44:38;5.22;;;2.28;;
48578;SDS011;34357;51.948;6.132;2022-07-23T14:47:05;6.25;;;2.38;;
48578;SDS011;34357;51.948;6.132;2022-07-23T14:49:31;4.35;;;2.50;;
48578;SDS011;34357;51.948;6.132;2022-07-23T14:51:58;4.18;;;2.70;;
48578;SDS011;34357;51.948;6.132;2022-07-23T14:54:24;3.97;;;2.20;;
48578;SDS011;34357;51.948;6.132;2022-07-23T14:56:51;5.55;;;2.38;;
48578;SDS011;34357;51.948;6.132;2022-07-23T14:59:17;3.13;;;1.90;;
48578;SDS011;34357;51.948;6.132;2022-07-23T15:01:43;3.40;;;2.00;;
48578;SDS011;34357;51.948;6.132;2022-07-23T15:04:09;4.30;;;1.90;;
48578;SDS011;34357;51.948;6.132;2022-07-23T15:06:34;2.67;;;2.05;;
48578;SDS011;34357;51.948;6.132;2022-07-23T15:09:00;6.63;;;2.25;;
48578;SDS011;34357;51.948;6.132;2022-07-23T15:11:29;5.15;;;2.03;;
48578;SDS011;34357;51.948;6.132;2022-07-23T15:13:58;4.00;;;2.40;;
48578;SDS011;34357;51.948;6.132;2022-07-23T15:16:27;4.70;;;2.00;;
48578;SDS011;34357;51.948;6.132;2022-07-23T15:18:53;3.88;;;2.00;;
48578;SDS011;34357;51.948;6.132;2022-07-23T15:21:21;3.17;;;2.00;;
48578;SDS011;34357;51.948;6.132;2022-07-23T15:23:47;3.40;;;2.10;;
48578;SDS011;34357;51.948;6.132;2022-07-23T15:26:13;5.40;;;2.38;;
48578;SDS011;34357;51.948;6.132;2022-07-23T15:28:40;3.85;;;2.03;;
48578;SDS011;34357;51.948;6.132;2022-07-23T15:31:06;2.97;;;2.22;;
48578;SDS011;34357;51.948;6.132;2022-07-23T15:33:32;4.13;;;2.30;;
48578;SDS011;34357;51.948;6.132;2022-07-23T15:35:58;3.85;;;2.20;;
48578;SDS011;34357;51.948;6.132;2022-07-23T15:38:24;4.22;;;2.17;;